sensor_id;sensor_type;location;lat;lon;timestamp;pressure;altitude;pressure_sealevel;temperature
24740;BMP280;45234;48.148;17.128;2022-11-25T00:01:16;100015.16;;;8.14
24740;BMP280;45234;48.148;17.128;2022-11-25T00:03:44;100018.19;;;8.17
24740;BMP280;45234;48.148;17.128;2022-11-25T00:06:13;100025.22;;;8.23
24740;BMP280;45234;48.148;17.128;2022-11-25T00:08:42;100029.41;;;8.24
24740;BMP280;45234;48.148;17.128;2022-11-25T00:11:10;100030.66;;;8.28
24740;BMP280;45234;48.148;17.128;2022-11-25T00:13:38;100025.50;;;8.28
24740;BMP280;45234;48.148;17.128;2022-11-25T00:16:10;100028.75;;;8.31
24740;BMP280;45234;48.148;17.128;2022-11-25T00:18:38;100035.50;;;8.32
24740;BMP280;45234;48.148;17.128;2022-11-25T00:21:06;100033.53;;;8.34
24740;BMP280;45234;48.148;17.128;2022-11-25T00:23:35;100033.91;;;8.31
24740;BMP280;45234;48.148;17.128;2022-11-25T00:26:11;100042.94;;;8.26
24740;BMP280;45234;48.148;17.128;2022-11-25T00:28:40;100041.84;;;8.29
24740;BMP280;45234;48.148;17.128;2022-11-25T00:31:13;100041.66;;;8.31
24740;BMP280;45234;48.148;17.128;2022-11-25T00:33:41;100051.59;;;8.34
24740;BMP280;45234;48.148;17.128;2022-11-25T00:36:27;100050.38;;;8.29
24740;BMP280;45234;48.148;17.128;2022-11-25T00:38:56;100050.75;;;8.41
24740;BMP280;45234;48.148;17.128;2022-11-25T00:41:24;100038.34;;;8.37
24740;BMP280;45234;48.148;17.128;2022-11-25T00:44:11;100044.41;;;8.44
24740;BMP280;45234;48.148;17.128;2022-11-25T00:46:57;100049.22;;;8.47
24740;BMP280;45234;48.148;17.128;2022-11-25T00:49:26;100061.97;;;8.48
24740;BMP280;45234;48.148;17.128;2022-11-25T00:51:53;100057.97;;;8.46
24740;BMP280;45234;48.148;17.128;2022-11-25T00:54:20;100063.13;;;8.46
24740;BMP280;45234;48.148;17.128;2022-11-25T00:56:48;100070.88;;;8.46
24740;BMP280;45234;48.148;17.128;2022-11-25T00:59:15;100064.66;;;8.40
24740;BMP280;45234;48.148;17.128;2022-11-25T01:01:41;100061.59;;;8.37
24740;BMP280;45234;48.148;17.128;2022-11-25T01:04:08;100065.16;;;8.36
24740;BMP280;45234;48.148;17.128;2022-11-25T01:06:36;100071.66;;;8.32
24740;BMP280;45234;48.148;17.128;2022-11-25T01:09:04;100071.03;;;8.29
24740;BMP280;45234;48.148;17.128;2022-11-25T01:11:32;100069.25;;;8.30
24740;BMP280;45234;48.148;17.128;2022-11-25T01:13:59;100065.38;;;8.26
24740;BMP280;45234;48.148;17.128;2022-11-25T01:16:28;100064.34;;;8.20
24740;BMP280;45234;48.148;17.128;2022-11-25T01:18:56;100066.28;;;8.18
24740;BMP280;45234;48.148;17.128;2022-11-25T01:21:29;100066.78;;;8.14
24740;BMP280;45234;48.148;17.128;2022-11-25T01:23:57;100059.56;;;8.09
24740;BMP280;45234;48.148;17.128;2022-11-25T01:26:24;100066.34;;;8.10
24740;BMP280;45234;48.148;17.128;2022-11-25T01:28:57;100063.13;;;8.08
24740;BMP280;45234;48.148;17.128;2022-11-25T01:31:25;100067.81;;;7.82
24740;BMP280;45234;48.148;17.128;2022-11-25T01:33:55;100074.13;;;8.02
24740;BMP280;45234;48.148;17.128;2022-11-25T01:36:22;100070.88;;;8.08
24740;BMP280;45234;48.148;17.128;2022-11-25T01:38:54;100068.94;;;8.10
24740;BMP280;45234;48.148;17.128;2022-11-25T01:41:23;100065.78;;;8.15
24740;BMP280;45234;48.148;17.128;2022-11-25T01:54:39;100075.25;;;8.22
24740;BMP280;45234;48.148;17.128;2022-11-25T01:57:13;100084.25;;;8.26
24740;BMP280;45234;48.148;17.128;2022-11-25T01:59:47;100082.31;;;8.28
24740;BMP280;45234;48.148;17.128;2022-11-25T02:02:15;100088.38;;;8.36
24740;BMP280;45234;48.148;17.128;2022-11-25T02:04:45;100090.63;;;8.39
24740;BMP280;45234;48.148;17.128;2022-11-25T02:07:36;100088.38;;;8.36
24740;BMP280;45234;48.148;17.128;2022-11-25T02:10:11;100078.88;;;8.36
24740;BMP280;45234;48.148;17.128;2022-11-25T02:12:42;100087.91;;;8.40
24740;BMP280;45234;48.148;17.128;2022-11-25T02:15:10;100089.34;;;8.43
24740;BMP280;45234;48.148;17.128;2022-11-25T02:17:37;100092.50;;;8.45
24740;BMP280;45234;48.148;17.128;2022-11-25T02:20:07;100102.03;;;8.44
24740;BMP280;45234;48.148;17.128;2022-11-25T02:22:46;100096.69;;;8.46
24740;BMP280;45234;48.148;17.128;2022-11-25T02:25:22;100097.25;;;8.41
24740;BMP280;45234;48.148;17.128;2022-11-25T02:27:55;100096.06;;;8.44
24740;BMP280;45234;48.148;17.128;2022-11-25T02:30:23;100091.53;;;8.46
24740;BMP280;45234;48.148;17.128;2022-11-25T02:32:50;100096.53;;;8.47
24740;BMP280;45234;48.148;17.128;2022-11-25T02:38:01;100095.31;;;8.43
24740;BMP280;45234;48.148;17.128;2022-11-25T02:40:29;100096.06;;;8.44
24740;BMP280;45234;48.148;17.128;2022-11-25T02:42:59;100099.66;;;8.43
24740;BMP280;45234;48.148;17.128;2022-11-25T02:45:38;100100.97;;;8.39
24740;BMP280;45234;48.148;17.128;2022-11-25T02:48:07;100101.94;;;8.38
24740;BMP280;45234;48.148;17.128;2022-11-25T02:50:34;100105.66;;;8.35
24740;BMP280;45234;48.148;17.128;2022-11-25T02:53:01;100101.31;;;8.36
24740;BMP280;45234;48.148;17.128;2022-11-25T02:55:28;100103.53;;;8.39
24740;BMP280;45234;48.148;17.128;2022-11-25T02:57:55;100103.41;;;8.40
24740;BMP280;45234;48.148;17.128;2022-11-25T03:00:22;100115.75;;;8.45
24740;BMP280;45234;48.148;17.128;2022-11-25T03:02:52;100110.00;;;8.43
24740;BMP280;45234;48.148;17.128;2022-11-25T03:05:22;100100.56;;;8.50
24740;BMP280;45234;48.148;17.128;2022-11-25T03:07:49;100108.94;;;8.52
24740;BMP280;45234;48.148;17.128;2022-11-25T03:10:19;100119.09;;;8.53
24740;BMP280;45234;48.148;17.128;2022-11-25T03:12:46;100106.97;;;8.54
24740;BMP280;45234;48.148;17.128;2022-11-25T03:15:15;100118.56;;;8.58
24740;BMP280;45234;48.148;17.128;2022-11-25T03:17:43;100115.66;;;8.61
24740;BMP280;45234;48.148;17.128;2022-11-25T03:20:12;100121.44;;;8.63
24740;BMP280;45234;48.148;17.128;2022-11-25T03:22:41;100120.25;;;8.66
24740;BMP280;45234;48.148;17.128;2022-11-25T03:25:09;100121.53;;;8.70
24740;BMP280;45234;48.148;17.128;2022-11-25T03:27:39;100124.09;;;8.70
24740;BMP280;45234;48.148;17.128;2022-11-25T03:30:10;100127.84;;;8.67
24740;BMP280;45234;48.148;17.128;2022-11-25T03:32:37;100127.50;;;8.70
24740;BMP280;45234;48.148;17.128;2022-11-25T03:35:05;100122.31;;;8.70
24740;BMP280;45234;48.148;17.128;2022-11-25T03:37:32;100130.72;;;8.72
24740;BMP280;45234;48.148;17.128;2022-11-25T03:39:59;100129.44;;;8.68
24740;BMP280;45234;48.148;17.128;2022-11-25T03:42:28;100136.22;;;8.69
24740;BMP280;45234;48.148;17.128;2022-11-25T03:44:55;100140.28;;;8.72
24740;BMP280;45234;48.148;17.128;2022-11-25T03:47:22;100139.09;;;8.74
24740;BMP280;45234;48.148;17.128;2022-11-25T03:49:49;100146.50;;;8.77
24740;BMP280;45234;48.148;17.128;2022-11-25T03:52:16;100143.91;;;8.77
24740;BMP280;45234;48.148;17.128;2022-11-25T03:54:43;100153.09;;;8.80
24740;BMP280;45234;48.148;17.128;2022-11-25T03:57:15;100150.50;;;8.80
24740;BMP280;45234;48.148;17.128;2022-11-25T03:59:42;100146.00;;;8.82
24740;BMP280;45234;48.148;17.128;2022-11-25T04:02:09;100153.56;;;8.83
24740;BMP280;45234;48.148;17.128;2022-11-25T04:04:37;100165.31;;;8.86
24740;BMP280;45234;48.148;17.128;2022-11-25T04:07:05;100156.75;;;8.85
24740;BMP280;45234;48.148;17.128;2022-11-25T04:09:32;100159.34;;;8.85
24740;BMP280;45234;48.148;17.128;2022-11-25T04:12:01;100166.28;;;8.85
24740;BMP280;45234;48.148;17.128;2022-11-25T04:14:54;100157.94;;;8.83
24740;BMP280;45234;48.148;17.128;2022-11-25T04:17:21;100164.69;;;8.84
24740;BMP280;45234;48.148;17.128;2022-11-25T04:19:49;100155.16;;;8.84
24740;BMP280;45234;48.148;17.128;2022-11-25T04:22:16;100159.50;;;8.84
24740;BMP280;45234;48.148;17.128;2022-11-25T04:24:45;100161.91;;;8.85
24740;BMP280;45234;48.148;17.128;2022-11-25T04:27:16;100169.69;;;8.85
24740;BMP280;45234;48.148;17.128;2022-11-25T04:29:46;100169.09;;;8.83
24740;BMP280;45234;48.148;17.128;2022-11-25T04:32:14;100170.06;;;8.82
24740;BMP280;45234;48.148;17.128;2022-11-25T04:34:43;100177.00;;;8.82
24740;BMP280;45234;48.148;17.128;2022-11-25T04:37:10;100169.09;;;8.83
24740;BMP280;45234;48.148;17.128;2022-11-25T04:39:41;100174.25;;;8.83
24740;BMP280;45234;48.148;17.128;2022-11-25T04:42:16;100178.41;;;8.84
24740;BMP280;45234;48.148;17.128;2022-11-25T04:45:04;100174.84;;;8.85
24740;BMP280;45234;48.148;17.128;2022-11-25T04:47:54;100179.66;;;8.88
24740;BMP280;45234;48.148;17.128;2022-11-25T04:50:22;100183.06;;;8.89
24740;BMP280;45234;48.148;17.128;2022-11-25T04:52:59;100185.47;;;8.90
24740;BMP280;45234;48.148;17.128;2022-11-25T04:55:26;100194.81;;;8.91
24740;BMP280;45234;48.148;17.128;2022-11-25T04:57:54;100195.44;;;8.93
24740;BMP280;45234;48.148;17.128;2022-11-25T05:00:22;100193.88;;;8.92
24740;BMP280;45234;48.148;17.128;2022-11-25T05:02:49;100200.63;;;8.93
24740;BMP280;45234;48.148;17.128;2022-11-25T05:05:20;100195.63;;;8.92
24740;BMP280;45234;48.148;17.128;2022-11-25T05:07:48;100195.81;;;8.90
24740;BMP280;45234;48.148;17.128;2022-11-25T05:10:18;100192.25;;;8.91
24740;BMP280;45234;48.148;17.128;2022-11-25T05:12:47;100200.81;;;8.92
24740;BMP280;45234;48.148;17.128;2022-11-25T05:15:16;100202.94;;;8.88
24740;BMP280;45234;48.148;17.128;2022-11-25T05:17:46;100204.53;;;8.89
24740;BMP280;45234;48.148;17.128;2022-11-25T05:20:17;100209.06;;;8.87
24740;BMP280;45234;48.148;17.128;2022-11-25T05:22:45;100205.50;;;8.88
24740;BMP280;45234;48.148;17.128;2022-11-25T05:25:16;100206.50;;;8.87
24740;BMP280;45234;48.148;17.128;2022-11-25T05:28:04;100212.47;;;8.88
24740;BMP280;45234;48.148;17.128;2022-11-25T05:30:31;100202.13;;;8.88
24740;BMP280;45234;48.148;17.128;2022-11-25T05:32:58;100202.94;;;8.88
24740;BMP280;45234;48.148;17.128;2022-11-25T05:35:24;100210.69;;;8.88
24740;BMP280;45234;48.148;17.128;2022-11-25T05:37:51;100213.28;;;8.88
24740;BMP280;45234;48.148;17.128;2022-11-25T05:40:19;100214.06;;;8.89
24740;BMP280;45234;48.148;17.128;2022-11-25T05:43:05;100220.38;;;8.86
24740;BMP280;45234;48.148;17.128;2022-11-25T05:45:36;100218.19;;;8.83
24740;BMP280;45234;48.148;17.128;2022-11-25T05:48:06;100216.09;;;8.79
24740;BMP280;45234;48.148;17.128;2022-11-25T05:50:33;100227.94;;;8.73
24740;BMP280;45234;48.148;17.128;2022-11-25T05:53:02;100216.84;;;8.65
24740;BMP280;45234;48.148;17.128;2022-11-25T05:55:28;100227.06;;;8.58
24740;BMP280;45234;48.148;17.128;2022-11-25T05:57:58;100222.78;;;8.50
24740;BMP280;45234;48.148;17.128;2022-11-25T06:00:27;100215.25;;;8.41
24740;BMP280;45234;48.148;17.128;2022-11-25T06:02:59;100223.41;;;8.29
24740;BMP280;45234;48.148;17.128;2022-11-25T06:05:26;100232.00;;;8.22
24740;BMP280;45234;48.148;17.128;2022-11-25T06:07:53;100226.84;;;8.14
24740;BMP280;45234;48.148;17.128;2022-11-25T06:10:21;100226.56;;;8.09
24740;BMP280;45234;48.148;17.128;2022-11-25T06:12:49;100229.00;;;8.02
24740;BMP280;45234;48.148;17.128;2022-11-25T06:15:16;100231.44;;;7.95
24740;BMP280;45234;48.148;17.128;2022-11-25T06:17:43;100233.38;;;7.93
24740;BMP280;45234;48.148;17.128;2022-11-25T06:20:16;100228.66;;;7.66
24740;BMP280;45234;48.148;17.128;2022-11-25T06:22:44;100238.09;;;7.90
24740;BMP280;45234;48.148;17.128;2022-11-25T06:25:11;100234.19;;;7.94
24740;BMP280;45234;48.148;17.128;2022-11-25T06:27:41;100241.91;;;8.02
24740;BMP280;45234;48.148;17.128;2022-11-25T06:30:30;100239.47;;;8.09
24740;BMP280;45234;48.148;17.128;2022-11-25T06:33:09;100242.97;;;8.16
24740;BMP280;45234;48.148;17.128;2022-11-25T06:35:36;100243.09;;;8.22
24740;BMP280;45234;48.148;17.128;2022-11-25T06:38:03;100242.41;;;8.28
24740;BMP280;45234;48.148;17.128;2022-11-25T06:40:30;100237.75;;;8.32
24740;BMP280;45234;48.148;17.128;2022-11-25T06:42:58;100242.53;;;8.35
24740;BMP280;45234;48.148;17.128;2022-11-25T06:45:24;100243.34;;;8.36
24740;BMP280;45234;48.148;17.128;2022-11-25T06:47:51;100237.53;;;8.34
24740;BMP280;45234;48.148;17.128;2022-11-25T06:50:19;100241.75;;;8.35
24740;BMP280;45234;48.148;17.128;2022-11-25T06:52:46;100245.28;;;8.42
24740;BMP280;45234;48.148;17.128;2022-11-25T06:55:13;100244.56;;;8.48
24740;BMP280;45234;48.148;17.128;2022-11-25T06:57:40;100249.56;;;8.49
24740;BMP280;45234;48.148;17.128;2022-11-25T07:00:07;100249.41;;;8.51
24740;BMP280;45234;48.148;17.128;2022-11-25T07:02:34;100251.19;;;8.50
24740;BMP280;45234;48.148;17.128;2022-11-25T07:05:09;100249.72;;;8.48
24740;BMP280;45234;48.148;17.128;2022-11-25T07:07:36;100254.25;;;8.46
24740;BMP280;45234;48.148;17.128;2022-11-25T07:10:04;100262.38;;;8.43
24740;BMP280;45234;48.148;17.128;2022-11-25T07:12:31;100260.22;;;8.46
24740;BMP280;45234;48.148;17.128;2022-11-25T07:14:59;100259.22;;;8.55
24740;BMP280;45234;48.148;17.128;2022-11-25T07:17:29;100257.59;;;8.63
24740;BMP280;45234;48.148;17.128;2022-11-25T07:19:56;100257.28;;;8.80
24740;BMP280;45234;48.148;17.128;2022-11-25T07:22:23;100262.47;;;9.03
24740;BMP280;45234;48.148;17.128;2022-11-25T07:24:50;100256.75;;;9.22
24740;BMP280;45234;48.148;17.128;2022-11-25T07:27:16;100260.81;;;9.40
24740;BMP280;45234;48.148;17.128;2022-11-25T07:29:43;100254.81;;;9.54
24740;BMP280;45234;48.148;17.128;2022-11-25T07:32:32;100257.78;;;9.66
24740;BMP280;45234;48.148;17.128;2022-11-25T07:34:59;100260.00;;;9.83
24740;BMP280;45234;48.148;17.128;2022-11-25T07:37:26;100264.47;;;9.89
24740;BMP280;45234;48.148;17.128;2022-11-25T07:39:53;100258.03;;;10.00
24740;BMP280;45234;48.148;17.128;2022-11-25T07:42:20;100262.75;;;10.11
24740;BMP280;45234;48.148;17.128;2022-11-25T07:44:48;100258.28;;;10.20
24740;BMP280;45234;48.148;17.128;2022-11-25T07:47:33;100258.91;;;10.28
24740;BMP280;45234;48.148;17.128;2022-11-25T07:50:01;100264.59;;;10.39
24740;BMP280;45234;48.148;17.128;2022-11-25T07:52:28;100255.84;;;10.40
24740;BMP280;45234;48.148;17.128;2022-11-25T07:54:55;100269.09;;;10.45
24740;BMP280;45234;48.148;17.128;2022-11-25T07:57:23;100266.38;;;10.53
24740;BMP280;45234;48.148;17.128;2022-11-25T07:59:49;100263.69;;;10.68
24740;BMP280;45234;48.148;17.128;2022-11-25T08:02:16;100262.25;;;10.86
24740;BMP280;45234;48.148;17.128;2022-11-25T08:04:43;100270.75;;;11.02
24740;BMP280;45234;48.148;17.128;2022-11-25T08:07:11;100267.28;;;11.16
24740;BMP280;45234;48.148;17.128;2022-11-25T08:09:38;100265.97;;;11.33
24740;BMP280;45234;48.148;17.128;2022-11-25T08:12:05;100265.09;;;11.47
24740;BMP280;45234;48.148;17.128;2022-11-25T08:14:32;100259.34;;;11.58
24740;BMP280;45234;48.148;17.128;2022-11-25T08:17:00;100262.22;;;11.70
24740;BMP280;45234;48.148;17.128;2022-11-25T08:19:30;100271.22;;;11.81
24740;BMP280;45234;48.148;17.128;2022-11-25T08:21:57;100268.03;;;11.85
24740;BMP280;45234;48.148;17.128;2022-11-25T08:24:24;100275.88;;;11.92
24740;BMP280;45234;48.148;17.128;2022-11-25T08:26:51;100279.28;;;11.99
24740;BMP280;45234;48.148;17.128;2022-11-25T08:29:19;100276.50;;;12.07
24740;BMP280;45234;48.148;17.128;2022-11-25T08:31:46;100275.13;;;12.11
24740;BMP280;45234;48.148;17.128;2022-11-25T08:34:22;100276.88;;;11.97
24740;BMP280;45234;48.148;17.128;2022-11-25T08:36:54;100275.63;;;11.87
24740;BMP280;45234;48.148;17.128;2022-11-25T08:39:21;100280.72;;;11.60
24740;BMP280;45234;48.148;17.128;2022-11-25T08:42:09;100287.34;;;11.35
24740;BMP280;45234;48.148;17.128;2022-11-25T08:44:37;100282.88;;;11.16
24740;BMP280;45234;48.148;17.128;2022-11-25T08:47:04;100285.31;;;11.03
24740;BMP280;45234;48.148;17.128;2022-11-25T08:49:31;100292.81;;;10.91
24740;BMP280;45234;48.148;17.128;2022-11-25T08:52:06;100291.31;;;10.75
24740;BMP280;45234;48.148;17.128;2022-11-25T08:54:33;100297.59;;;10.66
24740;BMP280;45234;48.148;17.128;2022-11-25T08:57:02;100298.50;;;10.58
24740;BMP280;45234;48.148;17.128;2022-11-25T08:59:28;100298.63;;;10.50
24740;BMP280;45234;48.148;17.128;2022-11-25T09:01:55;100304.75;;;10.43
24740;BMP280;45234;48.148;17.128;2022-11-25T09:04:22;100303.66;;;10.37
24740;BMP280;45234;48.148;17.128;2022-11-25T09:06:49;100307.81;;;10.32
24740;BMP280;45234;48.148;17.128;2022-11-25T09:09:16;100319.50;;;10.27
24740;BMP280;45234;48.148;17.128;2022-11-25T09:11:43;100316.66;;;10.22
24740;BMP280;45234;48.148;17.128;2022-11-25T09:14:10;100314.56;;;10.11
24740;BMP280;45234;48.148;17.128;2022-11-25T09:16:36;100321.69;;;10.09
24740;BMP280;45234;48.148;17.128;2022-11-25T09:19:04;100327.38;;;10.05
24740;BMP280;45234;48.148;17.128;2022-11-25T09:21:33;100320.97;;;10.01
24740;BMP280;45234;48.148;17.128;2022-11-25T09:23:59;100317.91;;;9.97
24740;BMP280;45234;48.148;17.128;2022-11-25T09:26:29;100317.50;;;9.93
24740;BMP280;45234;48.148;17.128;2022-11-25T09:28:56;100307.91;;;9.94
24740;BMP280;45234;48.148;17.128;2022-11-25T09:31:23;100304.66;;;10.00
24740;BMP280;45234;48.148;17.128;2022-11-25T09:33:50;100304.19;;;10.11
24740;BMP280;45234;48.148;17.128;2022-11-25T09:36:19;100305.50;;;10.22
24740;BMP280;45234;48.148;17.128;2022-11-25T09:38:46;100307.44;;;10.35
24740;BMP280;45234;48.148;17.128;2022-11-25T09:50:29;100309.06;;;10.78
24740;BMP280;45234;48.148;17.128;2022-11-25T09:56:13;100307.22;;;10.93
24740;BMP280;45234;48.148;17.128;2022-11-25T10:02:13;100313.84;;;11.03
24740;BMP280;45234;48.148;17.128;2022-11-25T10:04:54;100326.31;;;11.14
24740;BMP280;45234;48.148;17.128;2022-11-25T10:07:42;100319.78;;;11.18
24740;BMP280;45234;48.148;17.128;2022-11-25T10:10:18;100316.06;;;11.27
24740;BMP280;45234;48.148;17.128;2022-11-25T10:12:49;100314.91;;;11.36
24740;BMP280;45234;48.148;17.128;2022-11-25T10:15:20;100322.75;;;11.43
24740;BMP280;45234;48.148;17.128;2022-11-25T10:17:50;100323.00;;;11.48
24740;BMP280;45234;48.148;17.128;2022-11-25T10:20:30;100319.94;;;11.44
24740;BMP280;45234;48.148;17.128;2022-11-25T10:23:17;100325.75;;;11.46
24740;BMP280;45234;48.148;17.128;2022-11-25T10:26:00;100322.66;;;11.57
24740;BMP280;45234;48.148;17.128;2022-11-25T10:28:32;100310.22;;;11.53
24740;BMP280;45234;48.148;17.128;2022-11-25T10:31:03;100329.03;;;11.55
24740;BMP280;45234;48.148;17.128;2022-11-25T10:36:19;100317.41;;;11.51
24740;BMP280;45234;48.148;17.128;2022-11-25T10:41:22;100316.59;;;11.50
24740;BMP280;45234;48.148;17.128;2022-11-25T10:43:51;100317.84;;;11.54
24740;BMP280;45234;48.148;17.128;2022-11-25T10:49:42;100311.84;;;11.54
24740;BMP280;45234;48.148;17.128;2022-11-25T10:52:13;100313.22;;;11.50
24740;BMP280;45234;48.148;17.128;2022-11-25T10:54:40;100316.59;;;11.50
24740;BMP280;45234;48.148;17.128;2022-11-25T10:57:20;100309.38;;;11.39
24740;BMP280;45234;48.148;17.128;2022-11-25T10:59:59;100305.34;;;11.37
24740;BMP280;45234;48.148;17.128;2022-11-25T11:02:28;100306.16;;;11.37
24740;BMP280;45234;48.148;17.128;2022-11-25T11:05:02;100295.72;;;11.31
24740;BMP280;45234;48.148;17.128;2022-11-25T11:07:32;100292.53;;;11.35
24740;BMP280;45234;48.148;17.128;2022-11-25T11:10:25;100297.09;;;11.26
24740;BMP280;45234;48.148;17.128;2022-11-25T11:13:05;100290.47;;;11.24
24740;BMP280;45234;48.148;17.128;2022-11-25T11:15:45;100288.63;;;11.18
24740;BMP280;45234;48.148;17.128;2022-11-25T11:18:26;100285.84;;;11.19
24740;BMP280;45234;48.148;17.128;2022-11-25T11:20:58;100292.69;;;11.27
24740;BMP280;45234;48.148;17.128;2022-11-25T11:23:27;100287.88;;;11.24
24740;BMP280;45234;48.148;17.128;2022-11-25T11:26:01;100287.28;;;11.22
24740;BMP280;45234;48.148;17.128;2022-11-25T11:38:54;100270.34;;;11.26
24740;BMP280;45234;48.148;17.128;2022-11-25T11:52:34;100267.06;;;11.17
24740;BMP280;45234;48.148;17.128;2022-11-25T11:58:07;100268.69;;;11.18
24740;BMP280;45234;48.148;17.128;2022-11-25T12:03:37;100260.16;;;11.24
24740;BMP280;45234;48.148;17.128;2022-11-25T12:06:07;100251.78;;;11.29
24740;BMP280;45234;48.148;17.128;2022-11-25T12:09:03;100262.94;;;11.23
24740;BMP280;45234;48.148;17.128;2022-11-25T12:11:40;100265.75;;;11.28
24740;BMP280;45234;48.148;17.128;2022-11-25T12:14:25;100258.59;;;11.30
24740;BMP280;45234;48.148;17.128;2022-11-25T12:16:58;100253.00;;;11.33
24740;BMP280;45234;48.148;17.128;2022-11-25T12:19:51;100271.13;;;11.26
24740;BMP280;45234;48.148;17.128;2022-11-25T12:25:21;100263.53;;;11.25
24740;BMP280;45234;48.148;17.128;2022-11-25T12:27:52;100262.78;;;11.31
24740;BMP280;45234;48.148;17.128;2022-11-25T12:30:22;100261.78;;;11.32
24740;BMP280;45234;48.148;17.128;2022-11-25T12:33:25;100268.91;;;11.17
24740;BMP280;45234;48.148;17.128;2022-11-25T12:36:41;100269.25;;;11.14
24740;BMP280;45234;48.148;17.128;2022-11-25T12:41:44;100266.31;;;11.23
24740;BMP280;45234;48.148;17.128;2022-11-25T12:46:59;100266.91;;;11.25
24740;BMP280;45234;48.148;17.128;2022-11-25T12:49:28;100267.75;;;11.26
24740;BMP280;45234;48.148;17.128;2022-11-25T12:52:09;100278.91;;;11.26
24740;BMP280;45234;48.148;17.128;2022-11-25T13:03:44;100264.44;;;11.11
24740;BMP280;45234;48.148;17.128;2022-11-25T13:17:14;100262.97;;;11.29
24740;BMP280;45234;48.148;17.128;2022-11-25T13:19:42;100268.97;;;11.30
24740;BMP280;45234;48.148;17.128;2022-11-25T13:24:49;100276.50;;;11.25
24740;BMP280;45234;48.148;17.128;2022-11-25T13:35:53;100279.09;;;10.97
24740;BMP280;45234;48.148;17.128;2022-11-25T13:44:09;100268.47;;;10.85
24740;BMP280;45234;48.148;17.128;2022-11-25T13:46:38;100271.88;;;10.92
24740;BMP280;45234;48.148;17.128;2022-11-25T13:51:56;100274.63;;;10.84
24740;BMP280;45234;48.148;17.128;2022-11-25T13:54:34;100286.53;;;10.79
24740;BMP280;45234;48.148;17.128;2022-11-25T14:05:04;100282.09;;;10.73
24740;BMP280;45234;48.148;17.128;2022-11-25T14:10:37;100285.63;;;10.65
24740;BMP280;45234;48.148;17.128;2022-11-25T14:21:58;100274.63;;;10.42
24740;BMP280;45234;48.148;17.128;2022-11-25T14:24:37;100289.06;;;10.51
24740;BMP280;45234;48.148;17.128;2022-11-25T14:27:25;100291.03;;;10.49
24740;BMP280;45234;48.148;17.128;2022-11-25T14:30:03;100297.78;;;10.43
24740;BMP280;45234;48.148;17.128;2022-11-25T14:32:46;100300.88;;;10.39
24740;BMP280;45234;48.148;17.128;2022-11-25T14:35:21;100302.47;;;10.40
24740;BMP280;45234;48.148;17.128;2022-11-25T14:40:43;100293.25;;;10.31
24740;BMP280;45234;48.148;17.128;2022-11-25T14:43:25;100293.53;;;10.21
24740;BMP280;45234;48.148;17.128;2022-11-25T14:48:40;100296.84;;;10.15
24740;BMP280;45234;48.148;17.128;2022-11-25T14:51:09;100302.72;;;10.09
24740;BMP280;45234;48.148;17.128;2022-11-25T14:53:43;100297.28;;;10.04
24740;BMP280;45234;48.148;17.128;2022-11-25T14:56:19;100303.66;;;10.01
24740;BMP280;45234;48.148;17.128;2022-11-25T14:58:50;100309.53;;;9.95
24740;BMP280;45234;48.148;17.128;2022-11-25T15:01:21;100308.66;;;9.88
24740;BMP280;45234;48.148;17.128;2022-11-25T15:03:50;100316.97;;;9.83
24740;BMP280;45234;48.148;17.128;2022-11-25T15:06:18;100319.72;;;9.82
24740;BMP280;45234;48.148;17.128;2022-11-25T15:08:56;100319.44;;;9.62
24740;BMP280;45234;48.148;17.128;2022-11-25T15:11:26;100322.59;;;9.57
24740;BMP280;45234;48.148;17.128;2022-11-25T15:14:01;100329.41;;;9.50
24740;BMP280;45234;48.148;17.128;2022-11-25T15:16:37;100331.75;;;9.45
24740;BMP280;45234;48.148;17.128;2022-11-25T15:19:11;100338.69;;;9.45
24740;BMP280;45234;48.148;17.128;2022-11-25T15:21:41;100341.19;;;9.38
24740;BMP280;45234;48.148;17.128;2022-11-25T15:24:41;100350.00;;;9.29
24740;BMP280;45234;48.148;17.128;2022-11-25T15:27:17;100351.44;;;9.23
24740;BMP280;45234;48.148;17.128;2022-11-25T15:29:46;100358.16;;;9.18
24740;BMP280;45234;48.148;17.128;2022-11-25T15:32:25;100363.38;;;9.10
24740;BMP280;45234;48.148;17.128;2022-11-25T15:34:54;100359.00;;;9.10
24740;BMP280;45234;48.148;17.128;2022-11-25T15:37:22;100355.16;;;9.06
24740;BMP280;45234;48.148;17.128;2022-11-25T15:40:27;100360.72;;;9.03
24740;BMP280;45234;48.148;17.128;2022-11-25T15:42:41;100356.19;;;8.97
24740;BMP280;45234;48.148;17.128;2022-11-25T15:45:18;100353.66;;;8.89
24740;BMP280;45234;48.148;17.128;2022-11-25T15:47:45;100357.56;;;8.85
24740;BMP280;45234;48.148;17.128;2022-11-25T15:50:26;100354.22;;;8.76
24740;BMP280;45234;48.148;17.128;2022-11-25T15:52:57;100358.13;;;8.72
24740;BMP280;45234;48.148;17.128;2022-11-25T15:55:38;100352.97;;;8.64
24740;BMP280;45234;48.148;17.128;2022-11-25T15:58:15;100355.78;;;8.63
24740;BMP280;45234;48.148;17.128;2022-11-25T16:03:29;100360.13;;;8.54
24740;BMP280;45234;48.148;17.128;2022-11-25T16:06:00;100355.34;;;8.51
24740;BMP280;45234;48.148;17.128;2022-11-25T16:11:16;100350.53;;;8.40
24740;BMP280;45234;48.148;17.128;2022-11-25T16:13:47;100355.03;;;8.38
24740;BMP280;45234;48.148;17.128;2022-11-25T16:16:30;100352.00;;;8.26
24740;BMP280;45234;48.148;17.128;2022-11-25T16:19:05;100355.09;;;8.29
24740;BMP280;45234;48.148;17.128;2022-11-25T16:24:22;100353.78;;;8.25
24740;BMP280;45234;48.148;17.128;2022-11-25T16:29:36;100353.34;;;8.14
24740;BMP280;45234;48.148;17.128;2022-11-25T16:32:17;100360.00;;;8.08
24740;BMP280;45234;48.148;17.128;2022-11-25T16:34:44;100363.53;;;8.07
24740;BMP280;45234;48.148;17.128;2022-11-25T16:37:12;100364.38;;;8.08
24740;BMP280;45234;48.148;17.128;2022-11-25T16:39:39;100373.72;;;8.09
24740;BMP280;45234;48.148;17.128;2022-11-25T16:42:06;100368.69;;;8.07
24740;BMP280;45234;48.148;17.128;2022-11-25T16:44:39;100370.06;;;7.79